sensor_id;sensor_type;location;lat;lon;timestamp;P1;durP1;ratioP1;P2;durP2;ratioP2
76749;SDS011;66447;35.844;14.468;2023-06-22T00:02:24;8.45;;;4.47;;
76749;SDS011;66447;35.844;14.468;2023-06-22T00:17:25;6.30;;;4.38;;
76749;SDS011;66447;35.844;14.468;2023-06-22T00:32:26;11.63;;;4.97;;
76749;SDS011;66447;35.844;14.468;2023-06-22T00:47:27;6.38;;;4.03;;
76749;SDS011;66447;35.844;14.468;2023-06-22T01:02:28;6.73;;;3.93;;
76749;SDS011;66447;35.844;14.468;2023-06-22T01:17:29;7.53;;;3.83;;
76749;SDS011;66447;35.844;14.468;2023-06-22T01:32:33;5.50;;;3.80;;
76749;SDS011;66447;35.844;14.468;2023-06-22T01:47:35;9.33;;;3.30;;
76749;SDS011;66447;35.844;14.468;2023-06-22T02:02:38;6.65;;;3.40;;
76749;SDS011;66447;35.844;14.468;2023-06-22T02:17:45;5.03;;;3.40;;
76749;SDS011;66447;35.844;14.468;2023-06-22T02:32:47;5.63;;;3.20;;
76749;SDS011;66447;35.844;14.468;2023-06-22T02:47:48;5.75;;;4.03;;
76749;SDS011;66447;35.844;14.468;2023-06-22T03:02:51;5.03;;;3.60;;
76749;SDS011;66447;35.844;14.468;2023-06-22T03:17:51;5.68;;;3.35;;
76749;SDS011;66447;35.844;14.468;2023-06-22T03:32:52;4.03;;;2.95;;
76749;SDS011;66447;35.844;14.468;2023-06-22T03:47:53;6.07;;;3.67;;
76749;SDS011;66447;35.844;14.468;2023-06-22T04:02:54;6.03;;;3.20;;
76749;SDS011;66447;35.844;14.468;2023-06-22T04:17:55;11.18;;;4.30;;
76749;SDS011;66447;35.844;14.468;2023-06-22T04:32:57;12.03;;;4.00;;
76749;SDS011;66447;35.844;14.468;2023-06-22T04:47:58;16.67;;;3.80;;
76749;SDS011;66447;35.844;14.468;2023-06-22T05:02:59;19.93;;;7.30;;
76749;SDS011;66447;35.844;14.468;2023-06-22T05:18:01;30.13;;;7.43;;
76749;SDS011;66447;35.844;14.468;2023-06-22T05:33:05;20.40;;;5.10;;
76749;SDS011;66447;35.844;14.468;2023-06-22T05:48:06;17.17;;;4.57;;
76749;SDS011;66447;35.844;14.468;2023-06-22T06:03:07;10.10;;;3.87;;
76749;SDS011;66447;35.844;14.468;2023-06-22T06:18:09;10.80;;;4.60;;
76749;SDS011;66447;35.844;14.468;2023-06-22T06:33:10;7.57;;;3.50;;
76749;SDS011;66447;35.844;14.468;2023-06-22T06:48:10;7.82;;;3.88;;
76749;SDS011;66447;35.844;14.468;2023-06-22T07:03:11;10.80;;;3.90;;
76749;SDS011;66447;35.844;14.468;2023-06-22T07:18:12;16.75;;;4.45;;
76749;SDS011;66447;35.844;14.468;2023-06-22T07:33:13;10.23;;;4.07;;
76749;SDS011;66447;35.844;14.468;2023-06-22T07:48:14;14.27;;;4.10;;
76749;SDS011;66447;35.844;14.468;2023-06-22T08:03:14;8.90;;;3.60;;
76749;SDS011;66447;35.844;14.468;2023-06-22T08:18:16;9.03;;;3.37;;
76749;SDS011;66447;35.844;14.468;2023-06-22T08:33:16;5.22;;;3.25;;
76749;SDS011;66447;35.844;14.468;2023-06-22T08:48:17;13.77;;;3.57;;
76749;SDS011;66447;35.844;14.468;2023-06-22T09:03:18;7.00;;;3.50;;
76749;SDS011;66447;35.844;14.468;2023-06-22T09:18:20;9.27;;;3.70;;
76749;SDS011;66447;35.844;14.468;2023-06-22T09:33:21;6.73;;;3.50;;
76749;SDS011;66447;35.844;14.468;2023-06-22T09:48:22;8.05;;;3.35;;
76749;SDS011;66447;35.844;14.468;2023-06-22T10:03:23;7.47;;;3.00;;
76749;SDS011;66447;35.844;14.468;2023-06-22T10:18:24;6.30;;;3.63;;
76749;SDS011;66447;35.844;14.468;2023-06-22T10:33:24;10.00;;;3.33;;
76749;SDS011;66447;35.844;14.468;2023-06-22T10:48:25;10.20;;;3.30;;
76749;SDS011;66447;35.844;14.468;2023-06-22T11:03:26;8.52;;;3.50;;
76749;SDS011;66447;35.844;14.468;2023-06-22T11:18:27;4.70;;;3.13;;
76749;SDS011;66447;35.844;14.468;2023-06-22T11:33:28;4.97;;;3.43;;
76749;SDS011;66447;35.844;14.468;2023-06-22T11:48:29;9.85;;;3.58;;
76749;SDS011;66447;35.844;14.468;2023-06-22T12:03:30;8.13;;;3.47;;
76749;SDS011;66447;35.844;14.468;2023-06-22T12:18:32;7.50;;;3.43;;
76749;SDS011;66447;35.844;14.468;2023-06-22T12:33:33;12.00;;;3.63;;
76749;SDS011;66447;35.844;14.468;2023-06-22T12:48:37;7.53;;;3.13;;
76749;SDS011;66447;35.844;14.468;2023-06-22T13:03:42;6.67;;;3.40;;
76749;SDS011;66447;35.844;14.468;2023-06-22T13:18:43;5.90;;;3.42;;
76749;SDS011;66447;35.844;14.468;2023-06-22T13:33:43;11.30;;;3.20;;
76749;SDS011;66447;35.844;14.468;2023-06-22T14:03:48;4.05;;;3.30;;
76749;SDS011;66447;35.844;14.468;2023-06-22T14:18:49;5.80;;;3.07;;
76749;SDS011;66447;35.844;14.468;2023-06-22T14:33:50;3.77;;;2.90;;
76749;SDS011;66447;35.844;14.468;2023-06-22T14:48:51;6.67;;;3.30;;
76749;SDS011;66447;35.844;14.468;2023-06-22T15:03:52;5.47;;;3.27;;
76749;SDS011;66447;35.844;14.468;2023-06-22T15:18:53;5.43;;;3.33;;
76749;SDS011;66447;35.844;14.468;2023-06-22T15:33:54;6.25;;;3.55;;
76749;SDS011;66447;35.844;14.468;2023-06-22T15:48:55;9.85;;;3.40;;
76749;SDS011;66447;35.844;14.468;2023-06-22T16:03:56;7.45;;;3.60;;
76749;SDS011;66447;35.844;14.468;2023-06-22T16:18:57;4.67;;;3.37;;
76749;SDS011;66447;35.844;14.468;2023-06-22T16:33:58;5.22;;;3.28;;
76749;SDS011;66447;35.844;14.468;2023-06-22T16:48:59;6.87;;;3.37;;
76749;SDS011;66447;35.844;14.468;2023-06-22T17:04:07;6.80;;;3.47;;
76749;SDS011;66447;35.844;14.468;2023-06-22T17:19:09;4.63;;;3.33;;
76749;SDS011;66447;35.844;14.468;2023-06-22T17:34:11;5.80;;;3.50;;
76749;SDS011;66447;35.844;14.468;2023-06-22T17:49:15;9.53;;;4.60;;
76749;SDS011;66447;35.844;14.468;2023-06-22T18:04:18;6.97;;;3.93;;
76749;SDS011;66447;35.844;14.468;2023-06-22T18:19:20;5.43;;;3.27;;
76749;SDS011;66447;35.844;14.468;2023-06-22T18:34:21;6.37;;;3.53;;
76749;SDS011;66447;35.844;14.468;2023-06-22T18:49:23;5.83;;;3.63;;
76749;SDS011;66447;35.844;14.468;2023-06-22T19:04:32;6.43;;;3.80;;
76749;SDS011;66447;35.844;14.468;2023-06-22T19:19:34;5.87;;;3.70;;
76749;SDS011;66447;35.844;14.468;2023-06-22T19:34:41;6.53;;;4.07;;
76749;SDS011;66447;35.844;14.468;2023-06-22T20:04:46;4.47;;;3.72;;
76749;SDS011;66447;35.844;14.468;2023-06-22T20:19:52;6.67;;;4.03;;
76749;SDS011;66447;35.844;14.468;2023-06-22T20:34:54;4.33;;;3.77;;
76749;SDS011;66447;35.844;14.468;2023-06-22T20:49:55;5.10;;;3.70;;
76749;SDS011;66447;35.844;14.468;2023-06-22T21:05:05;4.37;;;3.43;;
76749;SDS011;66447;35.844;14.468;2023-06-22T21:20:07;4.53;;;3.67;;
76749;SDS011;66447;35.844;14.468;2023-06-22T21:35:08;4.73;;;3.80;;
76749;SDS011;66447;35.844;14.468;2023-06-22T21:50:13;5.07;;;3.50;;
76749;SDS011;66447;35.844;14.468;2023-06-22T22:05:14;4.73;;;3.50;;
76749;SDS011;66447;35.844;14.468;2023-06-22T22:20:15;5.10;;;3.57;;
76749;SDS011;66447;35.844;14.468;2023-06-22T22:35:16;5.00;;;3.43;;
76749;SDS011;66447;35.844;14.468;2023-06-22T22:50:17;5.45;;;3.97;;
76749;SDS011;66447;35.844;14.468;2023-06-22T23:05:18;5.03;;;4.00;;
76749;SDS011;66447;35.844;14.468;2023-06-22T23:20:20;5.80;;;3.63;;
76749;SDS011;66447;35.844;14.468;2023-06-22T23:35:20;6.57;;;3.38;;
76749;SDS011;66447;35.844;14.468;2023-06-22T23:50:22;6.67;;;3.93;;
